Time;durP1;ratioP1;P1;durP2;ratioP2;P2;SDS_P1;SDS_P2;PMS_P1;PMS_P2;Temp;Humidity;BMP_temperature;BMP_pressure;BME280_temperature;BME280_humidity;BME280_pressure;Samples;Min_cycle;Max_cycle;Signal;HPM_P1;HPM_P2
2022/10/28 00:01:06;;;;;;;;;2.75;2.50;;;;;;;;5084776;27;61973;-79
2022/10/28 00:03:32;;;;;;;;;5.00;3.75;;;;;;;;5083289;28;61761;-79
2022/10/28 00:06:08;;;;;;;;;4.25;3.00;;;;;;;;5082105;27;61793;-79
2022/10/28 00:08:33;;;;;;;;;3.50;3.50;;;;;;;;5084604;28;61874;-79
2022/10/28 00:11:18;;;;;;;;;6.67;5.33;;;;;;;;5084735;27;62051;-79
2022/10/28 00:13:44;;;;;;;;;7.67;3.67;;;;;;;;5084427;27;61830;-79
2022/10/28 00:16:09;;;;;;;;;7.00;4.00;;;;;;;;5082319;28;62057;-79
2022/10/28 00:18:35;;;;;;;;;5.00;5.00;;;;;;;;5083715;27;61899;-79
2022/10/28 00:21:05;;;;;;;;;8.67;3.67;;;;;;;;5084286;27;61875;-79
2022/10/28 00:23:30;;;;;;;;;4.00;3.00;;;;;;;;5084404;27;61818;-79
2022/10/28 00:26:02;;;;;;;;;6.00;4.33;;;;;;;;5083571;28;61929;-79
2022/10/28 00:28:27;;;;;;;;;6.00;4.67;;;;;;;;5082361;27;61778;-79
2022/10/28 00:30:52;;;;;;;;;7.50;5.25;;;;;;;;5084329;27;61839;-79
2022/10/28 00:33:18;;;;;;;;;6.00;4.75;;;;;;;;5083032;27;61864;-79
2022/10/28 00:35:43;;;;;;;;;6.00;5.00;;;;;;;;5081841;27;63464;-79
2022/10/28 00:38:08;;;;;;;;;4.50;4.00;;;;;;;;5082741;27;61866;-79
2022/10/28 00:40:34;;;;;;;;;5.00;4.00;;;;;;;;5084132;28;62079;-79
2022/10/28 00:42:59;;;;;;;;;6.00;5.00;;;;;;;;5083811;27;61856;-79
2022/10/28 00:45:24;;;;;;;;;5.33;4.00;;;;;;;;5083214;27;61696;-79
2022/10/28 00:47:54;;;;;;;;;4.00;4.00;;;;;;;;5083938;27;61848;-79
2022/10/28 00:50:22;;;;;;;;;3.00;3.00;;;;;;;;5081952;27;61772;-79
2022/10/28 00:52:51;;;;;;;;;4.33;3.00;;;;;;;;5082668;27;61707;-79
2022/10/28 00:55:17;;;;;;;;;6.75;5.00;;;;;;;;5081804;27;62923;-79
2022/10/28 00:57:43;;;;;;;;;4.25;3.25;;;;;;;;5101442;27;61807;-79
2022/10/28 01:00:09;;;;;;;;;6.50;3.75;;;;;;;;5104445;27;62199;-79
2022/10/28 01:02:40;;;;;;;;;4.67;3.67;;;;;;;;5104323;27;61778;-79
2022/10/28 01:05:06;;;;;;;;;5.00;4.00;;;;;;;;5103436;27;62821;-79
2022/10/28 01:07:31;;;;;;;;;7.75;4.50;;;;;;;;5103230;27;61741;-80
2022/10/28 01:09:56;;;;;;;;;6.50;5.00;;;;;;;;5104206;27;61676;-79
2022/10/28 01:12:31;;;;;;;;;5.00;3.50;;;;;;;;5103745;27;61724;-79
2022/10/28 01:14:56;;;;;;;;;8.00;3.50;;;;;;;;5085077;27;63192;-79
2022/10/28 01:17:41;;;;;;;;;3.50;3.50;;;;;;;;5103640;27;61793;-79
2022/10/28 01:20:15;;;;;;;;;3.50;3.25;;;;;;;;5020304;28;61974;-79
2022/10/28 01:23:07;;;;;;;;;4.75;4.00;;;;;;;;5003875;28;62221;-79
2022/10/28 01:25:48;;;;;;;;;5.75;4.25;;;;;;;;5016370;28;61952;-79
2022/10/28 01:28:13;;;;;;;;;5.67;4.33;;;;;;;;5020620;28;61993;-79
2022/10/28 01:31:00;;;;;;;;;6.00;2.00;;;;;;;;5020556;28;61992;-79
2022/10/28 01:33:28;;;;;;;;;4.75;4.75;;;;;;;;5004222;28;61823;-79
2022/10/28 01:35:56;;;;;;;;;6.75;6.00;;;;;;;;5002620;28;61825;-79
2022/10/28 01:38:35;;;;;;;;;5.00;3.33;;;;;;;;5020216;28;62019;-79
2022/10/28 01:41:08;;;;;;;;;5.67;3.00;;;;;;;;5020021;28;62023;-79
2022/10/28 01:43:39;;;;;;;;;6.25;3.75;;;;;;;;5003637;28;61963;-79
2022/10/28 01:46:09;;;;;;;;;3.50;3.25;;;;;;;;5019568;28;61931;-79
2022/10/28 01:48:45;;;;;;;;;6.75;4.50;;;;;;;;5003096;28;62060;-79
2022/10/28 01:51:18;;;;;;;;;6.50;4.50;;;;;;;;5003115;28;62034;-79
2022/10/28 01:53:46;;;;;;;;;6.00;4.00;;;;;;;;5019966;28;61973;-79
2022/10/28 01:56:14;;;;;;;;;6.50;4.50;;;;;;;;5007870;27;63478;-79
2022/10/28 01:58:40;;;;;;;;;7.50;4.25;;;;;;;;5084698;27;61921;-79
2022/10/28 02:01:07;;;;;;;;;5.25;4.00;;;;;;;;5084916;27;61878;-79
2022/10/28 02:03:32;;;;;;;;;5.25;4.50;;;;;;;;5085130;27;61734;-79
2022/10/28 02:05:59;;;;;;;;;4.25;4.00;;;;;;;;5083727;27;64453;-79
2022/10/28 02:08:36;;;;;;;;;6.00;4.00;;;;;;;;5084443;27;61775;-79
2022/10/28 02:11:02;;;;;;;;;6.67;3.67;;;;;;;;5103002;27;61707;-79
2022/10/28 02:13:33;;;;;;;;;8.00;3.00;;;;;;;;5084778;27;61861;-79
2022/10/28 02:16:06;;;;;;;;;5.67;5.67;;;;;;;;5084021;27;62665;-79
2022/10/28 02:19:01;;;;;;;;;3.25;3.25;;;;;;;;5085884;27;61784;-79
2022/10/28 02:21:26;;;;;;;;;3.75;3.75;;;;;;;;5088480;27;62652;-79
2022/10/28 02:23:55;;;;;;;;;5.00;3.00;;;;;;;;5106444;27;61774;-79
2022/10/28 02:26:20;;;;;;;;;7.25;4.00;;;;;;;;5106140;27;61837;-79
2022/10/28 02:28:52;;;;;;;;;6.75;4.25;;;;;;;;5106771;27;61931;-80
2022/10/28 02:31:20;;;;;;;;;6.25;4.25;;;;;;;;5088092;27;61871;-79
2022/10/28 02:33:49;;;;;;;;;7.00;7.00;;;;;;;;5106729;27;62101;-79
2022/10/28 02:36:15;;;;;;;;;4.25;4.25;;;;;;;;5087073;27;63136;-79
2022/10/28 02:38:44;;;;;;;;;5.75;2.75;;;;;;;;5087740;27;61924;-79
2022/10/28 02:41:36;;;;;;;;;5.25;4.50;;;;;;;;5106257;27;62124;-79
2022/10/28 02:44:05;;;;;;;;;6.75;4.00;;;;;;;;5102241;27;61744;-79
2022/10/28 02:46:32;;;;;;;;;3.50;2.50;;;;;;;;5105763;27;63442;-80
2022/10/28 02:49:07;;;;;;;;;6.00;4.00;;;;;;;;5105574;27;61877;-79
2022/10/28 02:51:35;;;;;;;;;7.00;4.00;;;;;;;;5087349;27;61822;-79
2022/10/28 02:54:02;;;;;;;;;9.00;6.50;;;;;;;;5087570;27;61915;-79
2022/10/28 02:56:30;;;;;;;;;3.00;3.00;;;;;;;;5086681;27;61851;-79
2022/10/28 02:58:56;;;;;;;;;4.33;3.00;;;;;;;;5106047;27;61882;-79
2022/10/28 03:01:21;;;;;;;;;5.75;5.25;;;;;;;;5106173;27;61882;-80
2022/10/28 03:03:46;;;;;;;;;6.00;5.00;;;;;;;;5087880;27;62132;-79
2022/10/28 03:06:11;;;;;;;;;4.75;4.75;;;;;;;;5086127;27;61871;-79
2022/10/28 03:08:37;;;;;;;;;4.50;2.00;;;;;;;;5087084;27;61751;-79
2022/10/28 03:11:02;;;;;;;;;6.25;4.75;;;;;;;;5087729;27;61944;-79
2022/10/28 03:13:27;;;;;;;;;6.00;4.75;;;;;;;;5087893;27;62265;-79
2022/10/28 03:15:52;;;;;;;;;3.75;3.00;;;;;;;;5104927;27;61768;-79
2022/10/28 03:18:18;;;;;;;;;8.25;3.75;;;;;;;;5086900;27;61710;-79
2022/10/28 03:20:43;;;;;;;;;5.33;4.00;;;;;;;;5086818;27;62046;-79
2022/10/28 03:23:08;;;;;;;;;6.00;6.00;;;;;;;;5106113;27;61884;-79
2022/10/28 03:25:33;;;;;;;;;6.00;4.50;;;;;;;;5105324;27;61710;-79
2022/10/28 03:27:59;;;;;;;;;5.25;4.25;;;;;;;;5086974;27;61799;-79
2022/10/28 03:30:24;;;;;;;;;5.25;4.00;;;;;;;;5105318;27;62267;-79
2022/10/28 03:32:49;;;;;;;;;6.75;3.75;;;;;;;;5105979;27;61998;-79
2022/10/28 03:35:14;;;;;;;;;9.00;4.00;;;;;;;;5104554;27;62099;-79
2022/10/28 03:37:41;;;;;;;;;7.25;4.50;;;;;;;;5105207;27;61758;-79
2022/10/28 03:40:07;;;;;;;;;9.00;4.00;;;;;;;;5086887;27;61751;-79
2022/10/28 03:42:32;;;;;;;;;7.67;5.67;;;;;;;;5105845;27;61905;-79
2022/10/28 03:44:58;;;;;;;;;6.25;4.25;;;;;;;;5104897;27;61749;-79
2022/10/28 03:47:23;;;;;;;;;4.75;3.50;;;;;;;;5105416;27;61719;-79
2022/10/28 03:49:48;;;;;;;;;6.00;6.00;;;;;;;;5086195;27;61827;-79
2022/10/28 03:52:14;;;;;;;;;8.25;5.50;;;;;;;;5105051;27;61693;-79
2022/10/28 03:54:39;;;;;;;;;4.75;3.75;;;;;;;;5104911;27;63102;-80
2022/10/28 03:57:04;;;;;;;;;3.67;3.67;;;;;;;;5086208;27;61969;-79
2022/10/28 03:59:29;;;;;;;;;6.50;5.00;;;;;;;;5086834;27;61792;-79
2022/10/28 04:01:55;;;;;;;;;8.33;5.33;;;;;;;;5087070;27;61929;-79
2022/10/28 04:04:20;;;;;;;;;6.00;6.00;;;;;;;;5104125;27;61936;-79
2022/10/28 04:06:45;;;;;;;;;8.00;6.75;;;;;;;;5085941;27;61870;-79
2022/10/28 04:09:10;;;;;;;;;4.50;4.50;;;;;;;;5086560;27;61778;-79
2022/10/28 04:11:36;;;;;;;;;7.75;6.25;;;;;;;;5087117;27;61700;-79
2022/10/28 04:14:01;;;;;;;;;6.00;4.00;;;;;;;;5104287;27;61894;-80
2022/10/28 04:16:26;;;;;;;;;10.25;5.25;;;;;;;;5104630;27;61783;-79
2022/10/28 04:18:52;;;;;;;;;7.00;5.75;;;;;;;;5103936;27;61733;-79
2022/10/28 04:21:17;;;;;;;;;6.00;5.25;;;;;;;;5104851;27;61846;-79
2022/10/28 04:23:42;;;;;;;;;6.75;4.25;;;;;;;;5104337;27;61668;-79
2022/10/28 04:26:07;;;;;;;;;5.25;5.00;;;;;;;;5104875;27;61988;-79
2022/10/28 04:28:33;;;;;;;;;7.00;4.67;;;;;;;;5104798;27;61945;-79
2022/10/28 04:30:58;;;;;;;;;7.75;4.75;;;;;;;;5105098;27;61891;-79
2022/10/28 04:33:23;;;;;;;;;6.75;4.75;;;;;;;;5103455;27;61762;-80
2022/10/28 04:35:49;;;;;;;;;5.50;3.50;;;;;;;;5085734;27;62018;-79
2022/10/28 04:38:14;;;;;;;;;4.00;4.00;;;;;;;;5086027;27;61815;-79
2022/10/28 04:40:39;;;;;;;;;4.00;4.00;;;;;;;;5085456;27;61848;-79
2022/10/28 04:43:05;;;;;;;;;4.00;2.25;;;;;;;;5103802;27;63146;-79
2022/10/28 04:45:31;;;;;;;;;7.25;3.50;;;;;;;;5086089;27;61875;-79
2022/10/28 04:47:59;;;;;;;;;4.50;3.25;;;;;;;;5103976;27;61705;-79
2022/10/28 04:50:25;;;;;;;;;8.50;2.00;;;;;;;;5103505;27;62135;-79
2022/10/28 04:52:50;;;;;;;;;6.50;5.00;;;;;;;;5085114;27;62823;-79
2022/10/28 04:55:16;;;;;;;;;3.75;3.75;;;;;;;;5104203;27;61566;-79
2022/10/28 04:57:41;;;;;;;;;5.00;3.50;;;;;;;;5104023;27;61945;-79
2022/10/28 05:00:07;;;;;;;;;5.50;3.00;;;;;;;;5104411;27;61792;-79
2022/10/28 05:02:32;;;;;;;;;4.25;3.25;;;;;;;;5084895;27;62044;-79
2022/10/28 05:05:01;;;;;;;;;4.75;3.50;;;;;;;;5104086;27;61708;-79
2022/10/28 05:07:26;;;;;;;;;5.75;4.75;;;;;;;;5085359;27;61877;-79
2022/10/28 05:09:51;;;;;;;;;8.25;5.00;;;;;;;;5104243;27;61804;-80
2022/10/28 05:12:17;;;;;;;;;6.75;3.75;;;;;;;;5103567;27;61819;-80
2022/10/28 05:14:42;;;;;;;;;9.50;4.25;;;;;;;;5103868;27;61881;-79
2022/10/28 05:17:07;;;;;;;;;5.50;4.00;;;;;;;;5103495;27;61926;-79
2022/10/28 05:19:33;;;;;;;;;4.25;3.00;;;;;;;;5085397;27;61694;-79
2022/10/28 05:21:58;;;;;;;;;4.00;4.00;;;;;;;;5103191;27;62071;-79
2022/10/28 05:24:23;;;;;;;;;5.00;3.50;;;;;;;;5103672;27;61807;-79
2022/10/28 05:26:48;;;;;;;;;5.00;3.25;;;;;;;;5085405;27;62071;-79
2022/10/28 05:29:14;;;;;;;;;6.50;4.00;;;;;;;;5085806;27;61804;-79
2022/10/28 05:31:39;;;;;;;;;4.25;3.00;;;;;;;;5084371;27;62952;-79
2022/10/28 05:34:04;;;;;;;;;4.00;4.00;;;;;;;;5103859;27;61769;-79
2022/10/28 05:36:29;;;;;;;;;4.25;4.25;;;;;;;;5084849;27;62047;-79
2022/10/28 05:38:55;;;;;;;;;5.50;4.00;;;;;;;;5104030;27;61924;-79
2022/10/28 05:41:20;;;;;;;;;4.50;3.50;;;;;;;;5084845;27;64399;-79
2022/10/28 05:43:45;;;;;;;;;2.50;2.50;;;;;;;;5103549;27;61796;-79
2022/10/28 05:46:10;;;;;;;;;12.25;6.25;;;;;;;;5084874;27;62086;-80
2022/10/28 05:48:36;;;;;;;;;4.75;2.75;;;;;;;;5085003;27;62178;-79
2022/10/28 05:51:01;;;;;;;;;7.25;5.00;;;;;;;;5102735;27;62718;-79
2022/10/28 05:53:26;;;;;;;;;5.25;4.50;;;;;;;;5103319;27;61799;-79
2022/10/28 05:55:52;;;;;;;;;8.75;3.75;;;;;;;;5103539;27;61976;-79
2022/10/28 05:58:17;;;;;;;;;7.50;5.00;;;;;;;;5103679;27;62292;-79
2022/10/28 06:00:42;;;;;;;;;8.25;5.00;;;;;;;;5083779;27;61868;-79
2022/10/28 06:03:10;;;;;;;;;5.50;4.00;;;;;;;;5103638;27;61804;-79
2022/10/28 06:05:41;;;;;;;;;8.75;6.00;;;;;;;;5084593;27;61929;-79
2022/10/28 06:08:06;;;;;;;;;4.50;3.00;;;;;;;;5103663;27;61893;-79
2022/10/28 06:10:32;;;;;;;;;5.25;4.00;;;;;;;;5084177;27;64028;-79
2022/10/28 06:12:57;;;;;;;;;5.00;4.00;;;;;;;;5103259;27;61832;-79
2022/10/28 06:15:22;;;;;;;;;4.75;4.50;;;;;;;;5084523;27;61699;-79
2022/10/28 06:17:48;;;;;;;;;4.25;4.00;;;;;;;;5103373;27;62005;-79
2022/10/28 06:20:14;;;;;;;;;4.50;4.00;;;;;;;;5083889;27;63004;-80
2022/10/28 06:22:46;;;;;;;;;6.50;3.00;;;;;;;;5084184;27;61822;-80
2022/10/28 06:25:11;;;;;;;;;5.25;3.50;;;;;;;;5103274;27;61809;-80
2022/10/28 06:27:36;;;;;;;;;4.00;4.00;;;;;;;;5103144;27;61910;-79
2022/10/28 06:30:02;;;;;;;;;7.50;5.00;;;;;;;;5102131;27;62670;-79
2022/10/28 06:32:27;;;;;;;;;4.75;3.00;;;;;;;;5084314;27;61934;-79
2022/10/28 06:34:52;;;;;;;;;5.50;3.50;;;;;;;;5102981;27;61743;-79
2022/10/28 06:37:18;;;;;;;;;2.00;2.00;;;;;;;;5102901;27;62588;-79
2022/10/28 06:39:44;;;;;;;;;4.75;4.00;;;;;;;;5084054;27;63406;-79
2022/10/28 06:42:09;;;;;;;;;4.75;4.00;;;;;;;;5102692;27;61945;-80
2022/10/28 06:44:35;;;;;;;;;3.00;1.50;;;;;;;;5102521;27;61752;-79
2022/10/28 06:47:00;;;;;;;;;8.00;4.00;;;;;;;;5084313;27;61926;-79
2022/10/28 06:49:26;;;;;;;;;5.00;3.00;;;;;;;;5101960;27;61831;-80
2022/10/28 06:51:51;;;;;;;;;4.25;4.00;;;;;;;;5083651;27;62109;-79
2022/10/28 06:54:16;;;;;;;;;7.25;4.75;;;;;;;;5084331;27;61937;-79
2022/10/28 06:56:44;;;;;;;;;4.67;4.00;;;;;;;;5102603;27;61917;-80
2022/10/28 06:59:09;;;;;;;;;7.00;5.50;;;;;;;;5083453;27;63726;-79
2022/10/28 07:01:34;;;;;;;;;7.75;5.00;;;;;;;;5084244;27;61852;-80
2022/10/28 07:03:59;;;;;;;;;4.50;3.25;;;;;;;;5084952;27;61835;-79
2022/10/28 07:06:25;;;;;;;;;4.50;2.50;;;;;;;;5098449;27;61657;-80
2022/10/28 07:08:50;;;;;;;;;5.75;5.00;;;;;;;;5085138;28;61942;-79
2022/10/28 07:11:17;;;;;;;;;6.00;4.00;;;;;;;;5085605;27;61776;-79
2022/10/28 07:13:42;;;;;;;;;6.00;4.00;;;;;;;;5085085;28;61793;-80
2022/10/28 07:16:07;;;;;;;;;6.50;4.75;;;;;;;;5085610;27;61704;-80
2022/10/28 07:18:33;;;;;;;;;3.00;2.00;;;;;;;;5084334;27;61835;-79
2022/10/28 07:20:59;;;;;;;;;5.25;4.75;;;;;;;;5066850;28;62167;-79
2022/10/28 07:23:24;;;;;;;;;6.50;4.50;;;;;;;;5067343;28;61959;-79
2022/10/28 07:25:53;;;;;;;;;8.25;3.00;;;;;;;;5067216;27;61792;-79
2022/10/28 07:28:19;;;;;;;;;4.50;3.00;;;;;;;;5065961;28;63395;-79
2022/10/28 07:30:44;;;;;;;;;6.00;4.50;;;;;;;;5066856;28;61730;-79
2022/10/28 07:33:09;;;;;;;;;6.50;4.75;;;;;;;;5085206;27;61879;-79
2022/10/28 07:35:35;;;;;;;;;10.00;6.00;;;;;;;;5085419;28;61765;-79
2022/10/28 07:38:00;;;;;;;;;7.25;5.00;;;;;;;;5083850;28;61890;-79
2022/10/28 07:40:26;;;;;;;;;6.00;4.00;;;;;;;;5066706;28;61733;-79
2022/10/28 07:42:51;;;;;;;;;4.75;4.00;;;;;;;;5084952;27;61895;-79
2022/10/28 07:45:16;;;;;;;;;6.00;3.33;;;;;;;;5085379;27;61948;-80
2022/10/28 07:47:42;;;;;;;;;5.75;3.75;;;;;;;;5084133;28;61969;-79
2022/10/28 07:50:08;;;;;;;;;5.00;4.00;;;;;;;;5084694;28;61745;-79
2022/10/28 07:52:34;;;;;;;;;7.00;3.50;;;;;;;;5084499;27;61623;-79
2022/10/28 07:54:59;;;;;;;;;4.00;4.00;;;;;;;;5066871;28;61851;-79
2022/10/28 07:57:25;;;;;;;;;6.75;4.00;;;;;;;;5083338;28;61937;-80
2022/10/28 07:59:50;;;;;;;;;5.00;5.00;;;;;;;;5085011;28;61945;-80
2022/10/28 08:02:17;;;;;;;;;3.67;2.67;;;;;;;;5066437;28;61963;-79
2022/10/28 08:04:42;;;;;;;;;5.67;3.00;;;;;;;;5066530;28;62156;-79
2022/10/28 08:07:07;;;;;;;;;5.00;4.33;;;;;;;;5096400;27;61760;-79
2022/10/28 08:09:33;;;;;;;;;3.00;3.00;;;;;;;;5086153;27;61889;-79
2022/10/28 08:11:58;;;;;;;;;5.33;4.00;;;;;;;;5104656;27;62150;-79
2022/10/28 08:14:23;;;;;;;;;0.33;0.00;;;;;;;;5105049;27;62032;-79
2022/10/28 08:16:48;;;;;;;;;4.00;4.00;;;;;;;;5085596;27;62019;-80
2022/10/28 08:19:14;;;;;;;;;5.33;4.00;;;;;;;;5104275;27;61857;-79
2022/10/28 08:21:39;;;;;;;;;6.00;3.00;;;;;;;;5104368;27;61870;-80
2022/10/28 08:24:04;;;;;;;;;6.33;5.00;;;;;;;;5104947;27;61659;-79
2022/10/28 08:26:30;;;;;;;;;11.33;6.67;;;;;;;;5103515;27;62237;-79
2022/10/28 08:28:55;;;;;;;;;7.00;2.33;;;;;;;;5104814;27;61682;-79
2022/10/28 08:31:20;;;;;;;;;5.00;5.00;;;;;;;;5104802;27;61908;-79
2022/10/28 08:33:46;;;;;;;;;5.00;4.00;;;;;;;;5086121;27;61839;-79
2022/10/28 08:36:12;;;;;;;;;6.33;4.00;;;;;;;;5085188;27;62791;-80
2022/10/28 08:38:38;;;;;;;;;6.33;4.00;;;;;;;;5104480;27;61681;-79
2022/10/28 08:41:11;;;;;;;;;9.33;4.00;;;;;;;;5085535;27;61764;-79
2022/10/28 08:43:52;;;;;;;;;5.00;4.00;;;;;;;;5086332;27;61768;-80
2022/10/28 08:46:32;;;;;;;;;6.00;5.00;;;;;;;;5103881;27;62888;-80
2022/10/28 08:48:59;;;;;;;;;5.00;5.00;;;;;;;;5104034;27;61726;-80
2022/10/28 08:51:27;;;;;;;;;8.33;4.00;;;;;;;;5104105;27;61764;-80
2022/10/28 08:53:56;;;;;;;;;4.33;3.00;;;;;;;;5086211;27;62054;-79
2022/10/28 08:56:21;;;;;;;;;8.00;4.00;;;;;;;;5102939;27;61834;-79
2022/10/28 08:58:48;;;;;;;;;6.33;4.67;;;;;;;;5104301;27;61761;-80
2022/10/28 09:01:20;;;;;;;;;5.00;4.00;;;;;;;;5085891;27;61927;-79
2022/10/28 09:03:48;;;;;;;;;6.00;3.00;;;;;;;;5085733;27;62020;-79
2022/10/28 09:06:14;;;;;;;;;6.33;5.00;;;;;;;;5084707;27;64495;-79
2022/10/28 09:08:41;;;;;;;;;3.67;3.67;;;;;;;;5085436;27;61970;-80
2022/10/28 09:11:09;;;;;;;;;5.00;5.00;;;;;;;;5103725;27;61856;-79
2022/10/28 09:13:43;;;;;;;;;3.67;3.67;;;;;;;;5104280;27;61887;-79
2022/10/28 09:16:26;;;;;;;;;6.33;3.67;;;;;;;;5085049;27;63357;-80
2022/10/28 09:18:53;;;;;;;;;7.00;5.33;;;;;;;;5084897;27;61969;-79
2022/10/28 09:21:21;;;;;;;;;5.67;3.67;;;;;;;;5103603;27;61736;-79
2022/10/28 09:23:57;;;;;;;;;7.33;4.67;;;;;;;;5103598;27;61767;-80
2022/10/28 09:26:32;;;;;;;;;7.67;7.33;;;;;;;;5084178;27;63528;-80
2022/10/28 09:28:57;;;;;;;;;8.33;4.00;;;;;;;;5103722;27;61919;-80
2022/10/28 09:31:35;;;;;;;;;7.00;3.67;;;;;;;;5085205;27;61919;-79
2022/10/28 09:34:16;;;;;;;;;7.67;4.67;;;;;;;;5104040;27;61927;-79
2022/10/28 09:36:46;;;;;;;;;8.67;5.67;;;;;;;;5083963;27;61977;-80
2022/10/28 09:39:28;;;;;;;;;5.67;3.67;;;;;;;;5084450;27;61943;-79
2022/10/28 09:41:56;;;;;;;;;6.67;5.00;;;;;;;;5103715;27;61958;-79
2022/10/28 09:44:25;;;;;;;;;4.33;4.33;;;;;;;;5084933;27;62125;-80
2022/10/28 09:46:53;;;;;;;;;12.00;4.00;;;;;;;;5102915;27;63086;-79
2022/10/28 09:49:32;;;;;;;;;3.67;3.00;;;;;;;;5102680;27;61795;-79
2022/10/28 09:51:57;;;;;;;;;10.67;4.67;;;;;;;;5085003;27;61861;-80
2022/10/28 09:54:32;;;;;;;;;5.67;5.00;;;;;;;;5084601;27;61790;-79
2022/10/28 09:56:58;;;;;;;;;5.33;4.00;;;;;;;;5102429;27;61771;-79
2022/10/28 09:59:23;;;;;;;;;4.33;3.00;;;;;;;;5103285;27;61954;-79
2022/10/28 10:01:48;;;;;;;;;4.00;4.00;;;;;;;;5103634;27;61784;-80
2022/10/28 10:04:22;;;;;;;;;7.00;4.00;;;;;;;;5085283;27;61993;-80
2022/10/28 10:06:49;;;;;;;;;7.00;4.67;;;;;;;;5101450;27;62853;-80
2022/10/28 10:09:34;;;;;;;;;6.33;5.00;;;;;;;;5103229;27;61898;-79
2022/10/28 10:12:03;;;;;;;;;6.67;5.00;;;;;;;;5084761;27;61843;-79
2022/10/28 10:14:34;;;;;;;;;9.00;4.67;;;;;;;;5103445;27;61688;-79
2022/10/28 10:17:02;;;;;;;;;5.00;4.00;;;;;;;;5102471;27;61759;-79
2022/10/28 10:19:47;;;;;;;;;4.67;4.67;;;;;;;;5084169;27;62046;-79
2022/10/28 10:22:27;;;;;;;;;6.00;5.00;;;;;;;;5102220;27;62147;-80
2022/10/28 10:24:52;;;;;;;;;6.67;5.00;;;;;;;;5103138;27;61798;-80
2022/10/28 10:27:18;;;;;;;;;7.00;4.67;;;;;;;;5102368;27;61863;-80
2022/10/28 10:29:48;;;;;;;;;6.33;4.67;;;;;;;;5103126;27;61975;-80
2022/10/28 10:32:15;;;;;;;;;8.00;5.33;;;;;;;;5103290;27;61814;-80
2022/10/28 10:34:43;;;;;;;;;6.67;4.33;;;;;;;;5084648;27;62148;-80
2022/10/28 10:37:15;;;;;;;;;6.67;5.00;;;;;;;;5101533;27;63081;-79
2022/10/28 10:39:41;;;;;;;;;4.67;4.67;;;;;;;;5086408;27;61804;-79
2022/10/28 10:42:16;;;;;;;;;9.67;4.67;;;;;;;;5106747;27;61731;-79
2022/10/28 10:44:42;;;;;;;;;4.33;4.00;;;;;;;;5106884;27;61794;-79
2022/10/28 10:47:07;;;;;;;;;4.33;4.33;;;;;;;;5087307;27;63269;-80
2022/10/28 10:49:35;;;;;;;;;8.00;6.00;;;;;;;;5105859;27;61885;-80
2022/10/28 10:52:08;;;;;;;;;6.67;4.33;;;;;;;;5087099;27;61929;-79
2022/10/28 10:54:36;;;;;;;;;6.67;5.00;;;;;;;;5088121;27;62111;-80
2022/10/28 10:57:08;;;;;;;;;9.00;6.00;;;;;;;;5105215;27;61685;-79
2022/10/28 10:59:36;;;;;;;;;6.33;5.00;;;;;;;;5087547;27;61752;-79
2022/10/28 11:02:04;;;;;;;;;11.33;5.67;;;;;;;;5088011;27;62019;-80
2022/10/28 11:04:29;;;;;;;;;7.00;4.67;;;;;;;;5087918;27;61906;-79
2022/10/28 11:06:55;;;;;;;;;7.00;6.00;;;;;;;;5086088;27;64413;-79
2022/10/28 11:09:21;;;;;;;;;9.00;6.33;;;;;;;;5106337;27;61733;-79
2022/10/28 11:11:46;;;;;;;;;6.33;3.67;;;;;;;;5105930;27;61738;-79
2022/10/28 11:14:12;;;;;;;;;9.67;6.00;;;;;;;;5087673;27;61838;-80
2022/10/28 11:16:53;;;;;;;;;5.67;4.00;;;;;;;;5105159;27;61771;-79
2022/10/28 11:19:26;;;;;;;;;6.67;6.00;;;;;;;;5105246;27;62529;-79
2022/10/28 11:22:01;;;;;;;;;8.33;6.00;;;;;;;;5086910;27;61767;-80
2022/10/28 11:24:38;;;;;;;;;12.33;9.33;;;;;;;;5087458;27;62152;-79
2022/10/28 11:27:15;;;;;;;;;8.00;6.33;;;;;;;;5086714;27;63577;-80
2022/10/28 11:29:41;;;;;;;;;5.33;5.33;;;;;;;;5105696;27;61758;-80
2022/10/28 11:32:15;;;;;;;;;6.33;6.00;;;;;;;;5087367;27;62118;-79
2022/10/28 11:34:49;;;;;;;;;7.00;4.67;;;;;;;;5087194;27;61733;-79
2022/10/28 11:37:33;;;;;;;;;7.00;7.00;;;;;;;;5104868;27;61770;-79
2022/10/28 11:40:17;;;;;;;;;8.33;5.67;;;;;;;;5105674;27;61791;-79
2022/10/28 11:43:01;;;;;;;;;7.00;3.67;;;;;;;;5105640;27;62048;-79
2022/10/28 11:45:45;;;;;;;;;6.67;3.67;;;;;;;;5087253;27;61707;-80
2022/10/28 11:48:22;;;;;;;;;5.33;5.33;;;;;;;;5104836;27;62650;-79
2022/10/28 11:50:50;;;;;;;;;5.33;4.00;;;;;;;;5087216;27;62126;-79
2022/10/28 11:53:28;;;;;;;;;4.67;3.00;;;;;;;;5105417;27;61659;-79
2022/10/28 11:56:11;;;;;;;;;9.67;4.00;;;;;;;;5105236;27;61756;-80
2022/10/28 11:58:49;;;;;;;;;5.00;4.67;;;;;;;;5104671;27;61748;-80
2022/10/28 12:01:30;;;;;;;;;7.00;5.00;;;;;;;;5105189;27;62009;-80
2022/10/28 12:04:04;;;;;;;;;3.33;3.33;;;;;;;;5086596;27;61850;-80
2022/10/28 12:06:37;;;;;;;;;5.67;4.00;;;;;;;;5086729;27;62304;-79
2022/10/28 12:09:15;;;;;;;;;6.67;5.00;;;;;;;;5085755;27;62417;-79
2022/10/28 12:11:52;;;;;;;;;5.67;3.67;;;;;;;;5086513;27;61805;-79
2022/10/28 12:14:18;;;;;;;;;5.67;4.00;;;;;;;;5086839;27;61910;-79
2022/10/28 12:17:02;;;;;;;;;9.33;6.00;;;;;;;;5086463;27;61995;-79
2022/10/28 12:19:33;;;;;;;;;8.00;5.33;;;;;;;;5085263;27;62211;-79
2022/10/28 12:22:11;;;;;;;;;4.00;3.00;;;;;;;;5104534;27;62013;-80
2022/10/28 12:24:38;;;;;;;;;5.00;4.33;;;;;;;;5104800;27;62008;-80
2022/10/28 12:27:14;;;;;;;;;5.33;4.67;;;;;;;;5104944;27;62051;-80
2022/10/28 12:29:41;;;;;;;;;8.00;6.00;;;;;;;;5085715;27;63688;-80
2022/10/28 12:32:11;;;;;;;;;7.33;7.00;;;;;;;;5104332;27;61850;-79
2022/10/28 12:34:46;;;;;;;;;11.00;5.33;;;;;;;;5104810;27;61743;-79
2022/10/28 12:37:15;;;;;;;;;10.33;6.00;;;;;;;;5085400;27;61977;-80
2022/10/28 12:39:44;;;;;;;;;8.33;6.00;;;;;;;;5085686;27;61899;-80
2022/10/28 12:42:41;;;;;;;;;7.67;4.67;;;;;;;;5086212;27;61747;-80
2022/10/28 12:45:11;;;;;;;;;9.33;6.00;;;;;;;;5021324;28;61946;-80
2022/10/28 12:47:57;;;;;;;;;6.00;4.33;;;;;;;;5020420;28;61838;-80
2022/10/28 12:50:41;;;;;;;;;4.67;4.67;;;;;;;;5019631;28;61923;-80
2022/10/28 12:53:26;;;;;;;;;9.67;4.00;;;;;;;;5004185;28;61999;-79
2022/10/28 12:55:59;;;;;;;;;9.00;5.33;;;;;;;;5020083;28;61898;-80
2022/10/28 12:58:59;;;;;;;;;7.00;4.67;;;;;;;;5004341;28;62182;-79
2022/10/28 13:01:27;;;;;;;;;4.33;3.00;;;;;;;;4940331;28;61940;-79
2022/10/28 13:03:53;;;;;;;;;4.00;4.00;;;;;;;;4926242;28;61869;-79
2022/10/28 13:06:21;;;;;;;;;3.00;3.00;;;;;;;;4942308;28;61902;-79
2022/10/28 13:08:52;;;;;;;;;6.33;4.33;;;;;;;;4942211;28;61930;-79
2022/10/28 13:11:18;;;;;;;;;9.67;5.00;;;;;;;;4942099;28;62660;-80
2022/10/28 13:13:55;;;;;;;;;6.00;4.33;;;;;;;;4942228;28;62010;-80
2022/10/28 13:16:23;;;;;;;;;8.33;5.67;;;;;;;;4942094;28;62014;-79
2022/10/28 13:19:16;;;;;;;;;5.00;4.00;;;;;;;;4941976;28;61854;-80
2022/10/28 13:21:44;;;;;;;;;3.67;3.67;;;;;;;;5010856;28;61984;-80
2022/10/28 13:24:19;;;;;;;;;4.33;4.33;;;;;;;;5003949;28;62046;-80
2022/10/28 13:26:45;;;;;;;;;4.00;4.00;;;;;;;;5020816;28;61965;-79
2022/10/28 13:29:21;;;;;;;;;8.33;6.00;;;;;;;;5003967;28;62192;-80
2022/10/28 13:31:47;;;;;;;;;4.00;3.00;;;;;;;;5019387;28;63216;-80
2022/10/28 13:34:15;;;;;;;;;5.33;4.00;;;;;;;;5020093;28;61920;-80
2022/10/28 13:36:54;;;;;;;;;7.00;5.00;;;;;;;;5085114;27;61890;-80
2022/10/28 13:39:41;;;;;;;;;9.33;4.00;;;;;;;;5085223;27;62136;-80
2022/10/28 13:42:12;;;;;;;;;3.00;2.67;;;;;;;;5102771;27;61765;-80
2022/10/28 13:44:47;;;;;;;;;3.00;3.00;;;;;;;;5084491;27;61892;-79
2022/10/28 13:47:13;;;;;;;;;4.00;3.00;;;;;;;;5103330;27;61725;-79
2022/10/28 13:49:58;;;;;;;;;5.67;4.00;;;;;;;;5102889;27;61807;-80
2022/10/28 13:52:23;;;;;;;;;5.67;4.33;;;;;;;;5102390;27;61965;-79
2022/10/28 13:54:53;;;;;;;;;6.67;5.33;;;;;;;;5103390;27;61962;-80
2022/10/28 13:57:19;;;;;;;;;4.00;4.00;;;;;;;;5102717;27;61945;-79
2022/10/28 13:59:52;;;;;;;;;3.33;3.00;;;;;;;;5084057;27;61791;-79
2022/10/28 14:02:21;;;;;;;;;4.67;3.00;;;;;;;;5102578;27;62704;-80
2022/10/28 14:04:54;;;;;;;;;3.00;3.00;;;;;;;;5084613;27;61772;-79
2022/10/28 14:07:26;;;;;;;;;5.00;3.00;;;;;;;;5102353;27;62085;-79
2022/10/28 14:09:53;;;;;;;;;3.33;3.33;;;;;;;;5103206;27;61748;-79
2022/10/28 14:12:30;;;;;;;;;4.33;2.67;;;;;;;;5102437;27;61846;-80
2022/10/28 14:14:58;;;;;;;;;4.33;4.00;;;;;;;;5106232;27;61862;-80
2022/10/28 14:17:26;;;;;;;;;5.33;2.67;;;;;;;;5106648;27;61913;-79
2022/10/28 14:19:52;;;;;;;;;5.33;4.00;;;;;;;;5106258;27;61719;-80
2022/10/28 14:22:28;;;;;;;;;2.67;2.67;;;;;;;;5105670;27;61897;-80
2022/10/28 14:24:53;;;;;;;;;7.00;3.67;;;;;;;;5106394;27;61907;-79
2022/10/28 14:27:25;;;;;;;;;6.00;4.00;;;;;;;;5106208;27;62152;-79
2022/10/28 14:29:53;;;;;;;;;5.67;3.00;;;;;;;;5088049;27;61812;-80
2022/10/28 14:32:31;;;;;;;;;4.33;3.67;;;;;;;;5087398;27;64480;-79
2022/10/28 14:35:09;;;;;;;;;7.00;3.00;;;;;;;;5106741;27;61767;-79
2022/10/28 14:37:53;;;;;;;;;6.00;2.67;;;;;;;;5106360;27;61739;-79
2022/10/28 14:40:18;;;;;;;;;4.00;2.33;;;;;;;;5088239;27;61759;-79
2022/10/28 14:42:53;;;;;;;;;3.00;2.67;;;;;;;;5087105;27;61664;-79
2022/10/28 14:45:21;;;;;;;;;6.33;2.33;;;;;;;;5088202;27;61994;-80
2022/10/28 14:48:05;;;;;;;;;3.67;3.67;;;;;;;;5106532;27;61929;-80
2022/10/28 14:50:38;;;;;;;;;1.67;1.00;;;;;;;;5106150;27;61811;-79
2022/10/28 14:53:06;;;;;;;;;8.67;4.00;;;;;;;;5105381;27;62783;-79
2022/10/28 14:55:32;;;;;;;;;3.33;2.67;;;;;;;;5106397;27;61814;-80